Bellefontaine, OH

8:57 PM EDT on July 24, 2017 (GMT -0400)
Bellefontaine

Weather History for KEDJ - January, 2014

Change the Weather History Date:

Sunday, January 26, 2014

  Actual Average (KDLZ) Record (KDLZ)
Temperature  
Mean Temperature 19 °F -  
Max Temperature 37 °F 35 °F 64 °F (1967)
Min Temperature 1 °F 17 °F -11 °F (1948)
Degree Days  
Heating Degree Days 46    
Moisture  
Dew Point 13 °F    
Average Humidity 76    
Maximum Humidity 92    
Minimum Humidity 59    
Precipitation  
Precipitation 0.03 in - - ()
Sea Level Pressure  
Sea Level Pressure 29.59 in    
Wind  
Wind Speed 12 mph (SSW)    
Max Wind Speed 22 mph    
Max Gust Speed 30 mph    
Visibility 8 miles    
Events      
Averages and records for this station are not official NWS values.
T = Trace of Precipitation, MM = Missing Value Source: NWS Daily Summary

Daily Weather History Graph

Daily Weather History Graph

Search for Another Location

Airport or City:

Trip Planner

Search our weather history database for the weather conditions in past years. The results will help you decide how hot, cold, wet, or windy it might be!

Date:

Astronomy

Jan. 26, 2014 Rise Set
Actual Time 7:49 AM EST 5:46 PM EST
Civil Twilight 7:20 AM EST 6:15 PM EST
Nautical Twilight 6:47 AM EST 6:48 PM EST
Astronomical Twilight 6:15 AM EST 7:20 PM EST
Moon 3:26 AM EST (1/26) 1:34 PM EST (1/26)
Length of Visible Light 10h 55m
Length of Day
9h 56m
Waning Crescent, 24% of the Moon is Illuminated
Jan 26
Waning Crescent
Jan 30
New
Feb 6
First Quarter
Feb 14
Full
Feb 22
Last Quarter

Hourly Weather History & Observations

Time (EST) Temp. Windchill Dew Point Humidity Pressure Visibility Wind Dir Wind Speed Gust Speed Precip Events Conditions
12:10 AM 6.8 °F -7.8 °F -2.2 °F 67% 29.80 in 10.0 mi West 10.4 mph - 0.00 in   Clear
12:30 AM 6.8 °F -5.9 °F -2.2 °F 67% 29.80 in 10.0 mi WSW 8.1 mph - 0.00 in   Clear
12:50 AM 5.0 °F -6.9 °F -2.2 °F 72% 29.80 in 10.0 mi West 6.9 mph - 0.00 in   Clear
1:10 AM 5.0 °F -6.9 °F -0.4 °F 78% 29.79 in 10.0 mi WSW 6.9 mph - 0.00 in   Clear
1:30 AM 5.0 °F -8.1 °F -0.4 °F 78% 29.79 in 10.0 mi WSW 8.1 mph - 0.00 in   Clear
1:50 AM 5.0 °F -5.6 °F -2.2 °F 72% 29.79 in 10.0 mi SW 5.8 mph - 0.00 in   Clear
2:10 AM 1.4 °F -8.3 °F -4.0 °F 78% 29.78 in 10.0 mi SSW 4.6 mph - 0.00 in   Clear
2:30 AM 1.4 °F -9.9 °F -4.0 °F 78% 29.80 in 10.0 mi South 5.8 mph - 0.00 in   Clear
2:50 AM 3.2 °F -10.3 °F -2.2 °F 78% 29.79 in 10.0 mi SSW 8.1 mph - 0.00 in   Clear
3:10 AM 3.2 °F -10.3 °F -0.4 °F 85% 29.79 in 10.0 mi South 8.1 mph - 0.00 in   Clear
3:30 AM 5.0 °F -8.1 °F -0.4 °F 78% 29.78 in 10.0 mi SSW 8.1 mph - 0.00 in   Clear
3:50 AM 5.0 °F -8.1 °F -0.4 °F 78% 29.77 in 10.0 mi SSW 8.1 mph - 0.00 in   Clear
4:10 AM 5.0 °F -9.1 °F -0.4 °F 78% 29.76 in 10.0 mi SSW 9.2 mph - 0.00 in   Clear
4:30 AM 5.0 °F -9.1 °F -0.4 °F 78% 29.76 in 10.0 mi SSW 9.2 mph - 0.00 in   Clear
4:50 AM 5.0 °F -10.0 °F -0.4 °F 78% 29.73 in 10.0 mi South 10.4 mph - 0.00 in   Clear
5:10 AM 5.0 °F -8.1 °F -2.2 °F 72% 29.73 in 10.0 mi South 8.1 mph - 0.00 in   Clear
5:30 AM 3.2 °F -10.3 °F -2.2 °F 78% 29.71 in 10.0 mi SSE 8.1 mph - 0.00 in   Clear
5:50 AM 5.0 °F -9.1 °F -0.4 °F 78% 29.71 in 10.0 mi SSE 9.2 mph - 0.00 in   Clear
6:10 AM 5.0 °F -9.1 °F -0.4 °F 78% 29.70 in 10.0 mi South 9.2 mph - 0.00 in   Clear
6:30 AM 6.8 °F -6.9 °F -0.4 °F 72% 29.70 in 10.0 mi South 9.2 mph - 0.00 in   Clear
6:50 AM 6.8 °F -6.9 °F 1.4 °F 79% 29.69 in 10.0 mi South 9.2 mph - 0.00 in   Clear
7:10 AM 8.6 °F -3.7 °F 1.4 °F 73% 29.69 in 8.0 mi South 8.1 mph - 0.00 in   Partly Cloudy
7:30 AM 8.6 °F -5.5 °F 1.4 °F 73% 29.68 in 1.5 mi SSE 10.4 mph - 0.00 in   Mostly Cloudy
7:50 AM 8.6 °F -6.3 °F 3.2 °F 79% 29.67 in 0.2 mi South 11.5 mph - 0.00 in   Overcast
8:10 AM 8.6 °F -6.3 °F 5.0 °F 85% 29.64 in 0.2 mi SSE 11.5 mph - 0.00 in   Overcast
8:30 AM 8.6 °F -6.3 °F 5.0 °F 85% 29.63 in 0.2 mi SSE 11.5 mph - 0.02 in   Overcast
8:50 AM 10.4 °F -4.8 °F 6.8 °F 85% 29.61 in 0.2 mi SSE 12.7 mph - 0.02 in   Overcast
9:10 AM 10.4 °F -5.4 °F 6.8 °F 85% 29.61 in 0.2 mi SSE 13.8 mph - 0.00 in   Overcast
9:30 AM 10.4 °F -5.4 °F 6.8 °F 85% 29.61 in 0.5 mi South 13.8 mph - 0.01 in   Overcast
9:50 AM 10.4 °F -5.4 °F 8.6 °F 92% 29.63 in 0.5 mi South 13.8 mph - 0.01 in   Overcast
10:10 AM 12.2 °F -3.7 °F 8.6 °F 85% 29.60 in 0.5 mi South 15.0 mph - 0.00 in   Overcast
10:30 AM 12.2 °F -3.1 °F 10.4 °F 92% 29.58 in 3.0 mi SSE 13.8 mph - 0.00 in   Overcast
10:50 AM 14.0 °F -2.0 °F 10.4 °F 86% 29.57 in 3.0 mi SSE 16.1 mph 24.2 mph 0.00 in   Overcast
11:10 AM 14.0 °F -0.8 °F 10.4 °F 86% 29.57 in 3.0 mi South 13.8 mph 20.7 mph 0.00 in   Overcast
11:30 AM 14.0 °F -2.0 °F 10.4 °F 86% 29.56 in 10.0 mi South 16.1 mph - 0.00 in   Overcast
11:50 AM 17.6 °F 1.3 °F 10.4 °F 73% 29.53 in 10.0 mi South 19.6 mph 24.2 mph 0.00 in   Mostly Cloudy
12:10 PM 17.6 °F 2.7 °F 10.4 °F 73% 29.51 in 10.0 mi South 16.1 mph - 0.00 in   Mostly Cloudy
12:30 PM 19.4 °F 5.0 °F 10.4 °F 68% 29.49 in 10.0 mi South 16.1 mph 20.7 mph 0.00 in   Mostly Cloudy
12:50 PM 21.2 °F 8.3 °F 12.2 °F 68% 29.48 in 10.0 mi South 13.8 mph - 0.00 in   Mostly Cloudy
1:10 PM 21.2 °F 7.8 °F 12.2 °F 68% 29.48 in 8.0 mi South 15.0 mph 28.8 mph 0.00 in   Overcast
1:30 PM 23.0 °F 10.1 °F 12.2 °F 63% 29.47 in 10.0 mi South 15.0 mph 25.3 mph 0.00 in   Overcast
1:50 PM 26.6 °F 14.3 °F 14.0 °F 59% 29.47 in 10.0 mi South 16.1 mph 23.0 mph 0.00 in   Mostly Cloudy
2:10 PM 26.6 °F 13.8 °F 15.8 °F 64% 29.47 in 10.0 mi SSW 17.3 mph - 0.00 in   Mostly Cloudy
2:30 PM 28.4 °F 15.4 °F 17.6 °F 64% 29.46 in 10.0 mi SSW 19.6 mph 25.3 mph 0.00 in   Overcast
2:50 PM 30.2 °F 18.1 °F 19.4 °F 64% 29.46 in 10.0 mi SSW 18.4 mph - 0.00 in   Overcast
3:10 PM 30.2 °F 17.8 °F 21.2 °F 69% 29.45 in 10.0 mi SSW 19.6 mph - 0.00 in   Overcast
3:30 PM 32.0 °F 19.8 °F 24.8 °F 75% 29.45 in 10.0 mi SW 20.7 mph 26.5 mph 0.00 in   Overcast
3:50 PM 33.8 °F 21.9 °F 26.6 °F 75% 29.45 in 9.0 mi SW 21.9 mph 26.5 mph 0.00 in   Overcast
4:10 PM 33.8 °F 22.8 °F 26.6 °F 75% 29.45 in 10.0 mi SW 18.4 mph - 0.00 in   Overcast
4:30 PM 33.8 °F 23.2 °F 26.6 °F 75% 29.46 in 10.0 mi SW 17.3 mph 25.3 mph 0.00 in   Overcast
4:50 PM 33.8 °F 23.2 °F 26.6 °F 75% 29.46 in 10.0 mi SW 17.3 mph 24.2 mph 0.00 in   Overcast
5:10 PM 33.8 °F 22.5 °F 28.4 °F 81% 29.47 in 9.0 mi SW 19.6 mph 29.9 mph 0.00 in   Overcast
5:30 PM 33.8 °F 22.8 °F 28.4 °F 81% 29.48 in 10.0 mi SW 18.4 mph 25.3 mph 0.00 in   Mostly Cloudy
5:50 PM 35.6 °F 26.6 °F 28.4 °F 75% 29.50 in 10.0 mi SW 13.8 mph 23.0 mph 0.00 in   Mostly Cloudy
6:10 PM 35.6 °F 26.2 °F 28.4 °F 75% 29.50 in 10.0 mi SW 15.0 mph 19.6 mph 0.00 in   Overcast
6:30 PM 35.6 °F 26.6 °F 28.4 °F 75% 29.51 in 10.0 mi SW 13.8 mph - 0.00 in   Mostly Cloudy
6:50 PM 35.6 °F 26.2 °F 28.4 °F 75% 29.52 in 10.0 mi SW 15.0 mph 23.0 mph 0.00 in   Overcast
7:10 PM 35.6 °F 25.9 °F 28.4 °F 75% 29.52 in 10.0 mi SW 16.1 mph 21.9 mph 0.00 in   Mostly Cloudy
7:30 PM 35.6 °F 25.5 °F 28.4 °F 75% 29.52 in 10.0 mi WSW 17.3 mph 24.2 mph 0.00 in   Mostly Cloudy
7:50 PM 35.6 °F 25.9 °F 28.4 °F 75% 29.52 in 10.0 mi WSW 16.1 mph - 0.00 in   Partly Cloudy
8:10 PM 35.6 °F 26.2 °F 28.4 °F 75% 29.52 in 10.0 mi SW 15.0 mph - 0.00 in   Partly Cloudy
8:30 PM 33.8 °F 23.9 °F 28.4 °F 81% 29.52 in 10.0 mi SSW 15.0 mph - 0.00 in   Clear
8:50 PM 35.6 °F 25.5 °F 30.2 °F 81% 29.51 in 10.0 mi SSW 17.3 mph - 0.00 in   Clear
9:10 PM 35.6 °F 25.5 °F 30.2 °F 81% 29.50 in 10.0 mi SSW 17.3 mph 25.3 mph 0.00 in   Clear
9:30 PM 35.6 °F 25.9 °F 30.2 °F 81% 29.48 in 10.0 mi South 16.1 mph - 0.00 in   Clear
9:50 PM 35.6 °F 25.5 °F 30.2 °F 81% 29.47 in 10.0 mi SSW 17.3 mph - 0.00 in   Clear
10:10 PM 37.4 °F 27.5 °F 30.2 °F 75% 29.46 in 10.0 mi SSW 18.4 mph - 0.00 in   Clear
10:30 PM 37.4 °F 28.2 °F 30.2 °F 75% 29.47 in 10.0 mi SSW 16.1 mph - 0.00 in   Clear
10:50 PM 37.4 °F 27.2 °F 30.2 °F 75% 29.46 in 10.0 mi SSW 19.6 mph - 0.00 in   Clear
11:10 PM 37.4 °F 27.2 °F 30.2 °F 75% 29.44 in 10.0 mi SSW 19.6 mph 25.3 mph 0.00 in   Clear
11:30 PM 37.4 °F 26.9 °F 30.2 °F 75% 29.44 in 10.0 mi SSW 20.7 mph 24.2 mph 0.00 in   Clear
11:50 PM 37.4 °F 26.6 °F 28.4 °F 70% 29.43 in 10.0 mi SW 21.9 mph - 0.00 in   Clear